Strona główna
METAR-TAF:

METAR-TAF

Lotnisko :

Koniak, Francja

Szerokość geograficzna: 45-40N, Długość geograficzna: 000-19W, wysokość: 30 m

Aktualna obserwacja pogody

Raport powstał 23 minut temu, godzina 17:30 UTC
Wiatr 7 kt od wschodnio-północny wschód
Temperatura 30°C
Wilgotność 49%
Ciśnienie 1009 hPa
Widzialność 10 km lub więcej
Brak chmur poniżej 1500 m i brak chmur cumulonimbus

METAR: LFBG 251730Z AUTO 07007KT CAVOK 30/18 Q1009 NOSIG

czas: 19:53 (17:53 UTC)

Prognoza

Raport powstał 3 godziny i 53 minut temu, godzina 14:00 UTC
Prognoza ważna od 25 godzina 15 UTC do 26 godzina 15 UTC
Wiatr 8 kt od wschód
Widzialność 10 km lub więcej
Brak chmur poniżej 1500 m i brak chmur cumulonimbus
Prawdopodobieństwo 30% :
Przejściowo
od 26 godzina 12 UTC do 26 godzina 15 UTC
Widzialność: 4500 m
Przerywane chmury na wysokości 5500 ft, Cumulusy wypiętrznone.
słaby przelotny opad deszczu,

TAF: LFBG 251400Z 2515/2615 09008KT CAVOK PROB30 TEMPO 2612/2615 4500 -SHRA BKN055TCU

Obserwacja i prognoza pogody dla ponad 4000 lotnisk (raport METAR i TAF).

Dostępne stacje oznaczono żółtymi i czerwonymi punktami na mapie.

Najedź kursorem aby zobaczyć nazwę stacji.

Kliknij aby zobaczyć obserwacje i prognozy pogody.

Aby zmienić mapę: kliknij na zielony przycisk z czarnym krzyżykiem, aby powiększyć; na zielony przycisk z myślnikiem, aby pomniejszyć; na zielone strzałki, aby przejść do map sąsiednich.


METAR-TAF: